createdAt,value
2018-02-20T00:02:09.922Z,35.72
2018-02-20T00:04:37.422Z,34.83
2018-02-20T00:07:04.932Z,37.00
2018-02-20T00:09:32.459Z,32.92
2018-02-20T00:12:00.727Z,39.38
2018-02-20T00:14:28.987Z,40.72
2018-02-20T00:16:56.480Z,41.50
2018-02-20T00:19:23.987Z,40.20
2018-02-20T00:21:51.478Z,36.72
2018-02-20T00:24:19.746Z,36.13
2018-02-20T00:26:47.274Z,36.33
2018-02-20T00:29:14.806Z,36.60
2018-02-20T00:31:42.303Z,36.65
2018-02-20T00:34:09.811Z,43.45
2018-02-20T00:36:37.319Z,35.20
2018-02-20T00:39:04.827Z,42.72
2018-02-20T00:41:32.319Z,38.78
2018-02-20T00:43:59.808Z,37.05
2018-02-20T00:46:27.303Z,39.08
2018-02-20T00:48:54.807Z,41.72
2018-02-20T00:51:22.307Z,40.65
2018-02-20T00:53:50.567Z,38.55
2018-02-20T00:56:18.839Z,40.47
2018-02-20T00:58:46.386Z,38.28
2018-02-20T01:01:13.879Z,32.75
2018-02-20T01:03:42.139Z,36.90
2018-02-20T01:06:10.400Z,37.70
2018-02-20T01:08:37.898Z,39.00
2018-02-20T01:11:05.407Z,36.95
2018-02-20T01:13:32.919Z,37.35
2018-02-20T01:16:00.432Z,36.60
2018-02-20T01:18:27.923Z,53.17
2018-02-20T01:20:56.203Z,38.70
2018-02-20T01:23:23.704Z,39.35
2018-02-20T01:25:51.196Z,42.97
2018-02-20T01:28:19.458Z,37.88
2018-02-20T01:30:46.971Z,35.70
2018-02-20T01:33:14.476Z,38.75
2018-02-20T01:35:41.963Z,44.28
2018-02-20T01:38:10.220Z,36.75
2018-02-20T01:40:38.503Z,39.70
2018-02-20T01:43:06.778Z,44.75
2018-02-20T01:45:35.039Z,37.38
2018-02-20T01:48:02.537Z,41.05
2018-02-20T01:50:30.082Z,39.33
2018-02-20T01:52:58.354Z,41.10
2018-02-20T01:55:26.618Z,42.03
2018-02-20T01:57:54.135Z,41.40
2018-02-20T02:00:21.655Z,42.78
2018-02-20T02:02:49.915Z,44.70
2018-02-20T02:05:17.407Z,41.17
2018-02-20T02:07:44.912Z,44.08
2018-02-20T02:10:12.432Z,46.95
2018-02-20T02:12:39.923Z,41.58
2018-02-20T02:15:07.415Z,40.97
2018-02-20T02:17:35.679Z,43.10
2018-02-20T02:20:03.251Z,45.38
2018-02-20T02:22:31.527Z,43.92
2018-02-20T02:24:59.782Z,53.72
2018-02-20T02:27:27.291Z,49.55
2018-02-20T02:29:54.788Z,59.55
2018-02-20T02:32:22.300Z,56.47
2018-02-20T02:34:49.791Z,49.92
2018-02-20T02:37:17.287Z,60.42
2018-02-20T02:39:45.560Z,53.25
2018-02-20T02:42:13.053Z,53.55
2018-02-20T02:44:40.555Z,52.92
2018-02-20T02:47:08.056Z,52.70
2018-02-20T02:49:35.551Z,54.08
2018-02-20T02:52:03.056Z,56.17
2018-02-20T02:54:31.332Z,53.72
2018-02-20T02:56:59.647Z,52.83
2018-02-20T02:59:27.161Z,59.60
2018-02-20T03:01:54.670Z,53.40
2018-02-20T03:04:22.172Z,51.80
2018-02-20T03:06:51.175Z,54.92
2018-02-20T03:09:19.435Z,55.85
2018-02-20T03:11:46.936Z,57.08
2018-02-20T03:14:14.446Z,53.13
2018-02-20T03:16:41.947Z,59.20
2018-02-20T03:19:09.448Z,67.62
2018-02-20T03:21:36.951Z,56.60
2018-02-20T03:24:05.223Z,61.75
2018-02-20T03:26:33.478Z,58.50
2018-02-20T03:29:00.990Z,53.13
2018-02-20T03:31:28.490Z,56.60
2018-02-20T03:33:56.003Z,59.70
2018-02-20T03:36:23.494Z,52.70
2018-02-20T03:38:50.992Z,58.45
2018-02-20T03:41:19.279Z,59.42
2018-02-20T03:43:47.555Z,58.53
2018-02-20T03:46:15.812Z,57.17
2018-02-20T03:48:43.312Z,60.35
2018-02-20T03:51:10.818Z,60.60
2018-02-20T03:53:39.110Z,62.78
2018-02-20T03:56:07.369Z,65.53
2018-02-20T03:58:34.872Z,63.40
2018-02-20T04:01:02.368Z,55.60
2018-02-20T04:03:29.858Z,62.08
2018-02-20T04:05:58.121Z,58.42
2018-02-20T04:08:25.626Z,58.70
2018-02-20T04:10:53.141Z,61.70
2018-02-20T04:13:20.643Z,59.97
2018-02-20T04:15:48.141Z,65.25
2018-02-20T04:18:15.647Z,65.95
2018-02-20T04:20:43.159Z,63.25
2018-02-20T04:23:10.658Z,66.50
2018-02-20T04:25:38.922Z,66.18
2018-02-20T04:28:07.181Z,66.95
2018-02-20T04:30:34.707Z,58.63
2018-02-20T04:33:02.215Z,61.37
2018-02-20T04:35:30.530Z,55.08
2018-02-20T04:37:58.762Z,55.45
2018-02-20T04:40:27.024Z,56.40
2018-02-20T04:42:56.035Z,56.47
2018-02-20T04:45:24.299Z,52.03
2018-02-20T04:47:53.308Z,48.53
2018-02-20T04:50:21.563Z,52.08
2018-02-20T04:52:49.058Z,51.83
2018-02-20T04:55:16.547Z,55.05
2018-02-20T04:57:44.040Z,50.83
2018-02-20T05:00:11.531Z,49.88
2018-02-20T05:02:39.035Z,54.33
2018-02-20T05:05:06.547Z,53.45
2018-02-20T05:07:34.044Z,57.20
2018-02-20T05:10:01.548Z,56.50
2018-02-20T05:12:29.807Z,57.20
2018-02-20T05:14:57.303Z,60.38
2018-02-20T05:17:24.847Z,62.22
2018-02-20T05:19:53.108Z,70.32
2018-02-20T05:22:21.375Z,61.40
2018-02-20T05:24:50.568Z,57.45
2018-02-20T05:27:18.080Z,58.17
2018-02-20T05:29:45.575Z,58.35
2018-02-20T05:32:13.083Z,57.17
2018-02-20T05:34:40.590Z,60.03
2018-02-20T05:37:08.083Z,61.88
2018-02-20T05:39:36.343Z,55.55
2018-02-20T05:42:05.363Z,57.28
2018-02-20T05:44:33.627Z,54.97
2018-02-20T05:47:01.907Z,58.08
2018-02-20T05:49:30.175Z,59.80
2018-02-20T05:51:58.439Z,57.20
2018-02-20T05:54:25.948Z,56.90
2018-02-20T05:56:53.444Z,50.22
2018-02-20T05:59:21.210Z,53.65
2018-02-20T06:01:48.833Z,53.53
2018-02-20T06:04:16.328Z,56.47
2018-02-20T06:06:43.861Z,55.08
2018-02-20T06:09:11.355Z,53.53
2018-02-20T06:11:38.970Z,53.40
2018-02-20T06:14:06.487Z,52.25
2018-02-20T06:16:34.003Z,57.60
2018-02-20T06:19:01.511Z,56.28
2018-02-20T06:21:29.767Z,53.10
2018-02-20T06:23:57.259Z,56.92
2018-02-20T06:26:25.525Z,52.53
2018-02-20T06:28:53.796Z,54.67
2018-02-20T06:31:22.058Z,59.80
2018-02-20T06:33:49.575Z,49.80
2018-02-20T06:36:17.083Z,54.35
2018-02-20T06:38:44.594Z,60.00
2018-02-20T06:41:12.111Z,54.15
2018-02-20T06:43:40.371Z,50.45
2018-02-20T06:46:08.640Z,56.20
2018-02-20T06:48:36.154Z,52.85
2018-02-20T06:51:03.647Z,48.45
2018-02-20T06:53:31.143Z,51.53
2018-02-20T06:55:59.414Z,54.03
2018-02-20T06:58:27.700Z,44.00
2018-02-20T07:00:55.956Z,47.35
2018-02-20T07:03:24.214Z,46.33
2018-02-20T07:05:52.109Z,43.83
2018-02-20T07:08:20.123Z,47.08
2018-02-20T07:10:47.639Z,46.90
2018-02-20T07:13:15.203Z,45.50
2018-02-20T07:15:42.723Z,47.20
2018-02-20T07:18:10.228Z,54.90
2018-02-20T07:20:37.725Z,54.90
2018-02-20T07:23:05.212Z,61.30
2018-02-20T07:25:32.717Z,62.03
2018-02-20T07:28:00.215Z,63.22
2018-02-20T07:30:27.716Z,61.40
2018-02-20T07:32:55.216Z,59.47
2018-02-20T07:35:22.724Z,61.10
2018-02-20T07:37:50.979Z,68.62
2018-02-20T07:40:18.470Z,61.72
2018-02-20T07:42:45.982Z,67.32
2018-02-20T07:45:13.481Z,67.30
2018-02-20T07:47:41.752Z,65.62
2018-02-20T07:50:10.025Z,68.57
2018-02-20T07:52:38.299Z,73.60
2018-02-20T07:55:06.590Z,71.53
2018-02-20T07:57:34.144Z,76.68
2018-02-20T08:00:02.441Z,65.10
2018-02-20T08:02:29.935Z,78.68
2018-02-20T08:04:57.564Z,74.70
2018-02-20T08:07:25.051Z,73.68
2018-02-20T08:09:52.546Z,73.22
2018-02-20T08:12:20.811Z,79.85
2018-02-20T08:14:49.169Z,72.97
2018-02-20T08:17:16.679Z,73.30
2018-02-20T08:19:44.184Z,76.65
2018-02-20T08:22:11.683Z,72.25
2018-02-20T08:24:39.954Z,69.03
2018-02-20T08:27:08.233Z,65.10
2018-02-20T08:29:36.511Z,69.65
2018-02-20T08:32:04.779Z,72.00
2018-02-20T08:34:33.035Z,73.50
2018-02-20T08:37:00.556Z,67.85
2018-02-20T08:39:28.062Z,70.97
2018-02-20T08:41:55.643Z,67.82
2018-02-20T08:44:23.902Z,68.40
2018-02-20T08:46:51.396Z,74.37
2018-02-20T08:49:18.896Z,64.32
2018-02-20T08:51:46.398Z,68.60
2018-02-20T08:54:13.903Z,73.47
2018-02-20T08:56:41.406Z,73.93
2018-02-20T08:59:09.667Z,72.55
2018-02-20T09:01:37.178Z,72.00
2018-02-20T09:04:04.692Z,71.37
2018-02-20T09:06:32.955Z,73.57
2018-02-20T09:09:00.570Z,71.68
2018-02-20T09:11:28.067Z,73.03
2018-02-20T09:13:55.567Z,75.55
2018-02-20T09:16:23.082Z,69.75
2018-02-20T09:18:50.579Z,67.97
2018-02-20T09:21:18.106Z,62.30
2018-02-20T09:23:45.620Z,62.25
2018-02-20T09:26:13.136Z,69.68
2018-02-20T09:28:41.411Z,69.85
2018-02-20T09:31:09.675Z,63.53
2018-02-20T09:33:37.171Z,66.72
2018-02-20T09:36:04.675Z,62.17
2018-02-20T09:38:32.166Z,64.25
2018-02-20T09:41:00.427Z,64.62
2018-02-20T09:43:28.698Z,64.95
2018-02-20T09:45:56.312Z,66.72
2018-02-20T09:48:23.819Z,64.78
2018-02-20T09:50:51.319Z,66.20
2018-02-20T09:53:18.820Z,67.65
2018-02-20T09:55:46.318Z,59.00
2018-02-20T09:58:14.600Z,60.80
2018-02-20T10:00:42.867Z,62.22
2018-02-20T10:03:11.143Z,64.28
2018-02-20T10:05:39.406Z,61.50
2018-02-20T10:08:06.907Z,62.67
2018-02-20T10:10:34.416Z,63.10
2018-02-20T10:13:02.679Z,65.20
2018-02-20T10:15:30.179Z,65.70
2018-02-20T10:17:58.446Z,65.87
2018-02-20T10:20:26.707Z,63.87
2018-02-20T10:22:54.209Z,61.72
2018-02-20T10:25:21.715Z,62.55
2018-02-20T10:27:49.207Z,63.25
2018-02-20T10:30:17.503Z,62.70
2018-02-20T10:32:45.003Z,62.05
2018-02-20T10:35:12.520Z,64.18
2018-02-20T10:37:40.807Z,65.22
2018-02-20T10:40:08.300Z,65.28
2018-02-20T10:42:35.794Z,63.55
2018-02-20T10:45:04.051Z,60.38
2018-02-20T10:47:32.326Z,64.65
2018-02-20T10:50:00.601Z,65.85
2018-02-20T10:52:28.167Z,56.80
2018-02-20T10:54:56.426Z,62.53
2018-02-20T10:57:24.688Z,60.72
2018-02-20T10:59:52.187Z,61.47
2018-02-20T11:02:20.447Z,66.18
2018-02-20T11:04:48.720Z,65.47
2018-02-20T11:07:16.219Z,62.97
2018-02-20T11:09:43.724Z,65.25
2018-02-20T11:12:11.238Z,60.80
2018-02-20T11:14:38.743Z,64.57
2018-02-20T11:17:06.256Z,61.25
2018-02-20T11:19:33.750Z,64.95
2018-02-20T11:22:01.246Z,65.93
2018-02-20T11:24:29.515Z,66.43
2018-02-20T11:26:57.790Z,65.07
2018-02-20T11:29:26.059Z,58.08
2018-02-20T11:31:54.323Z,71.40
2018-02-20T11:34:21.837Z,67.90
2018-02-20T11:36:49.351Z,59.78
2018-02-20T11:39:16.860Z,66.60
2018-02-20T11:41:44.371Z,69.95
2018-02-20T11:44:12.646Z,59.67
2018-02-20T11:46:40.140Z,65.45
2018-02-20T11:49:07.657Z,63.55
2018-02-20T11:51:35.932Z,63.55
2018-02-20T11:54:03.540Z,64.45
2018-02-20T11:56:31.083Z,73.87
2018-02-20T11:58:58.584Z,73.10
2018-02-20T12:01:26.088Z,70.68
2018-02-20T12:03:54.351Z,69.05
2018-02-20T12:06:21.849Z,65.18
2018-02-20T12:08:49.359Z,68.15
2018-02-20T12:11:16.868Z,64.75
2018-02-20T12:13:44.363Z,59.05
2018-02-20T12:16:12.100Z,63.45
2018-02-20T12:18:39.777Z,69.62
2018-02-20T12:21:07.350Z,61.37
2018-02-20T12:23:34.839Z,55.65
2018-02-20T12:26:03.106Z,55.05
2018-02-20T12:28:31.378Z,53.95
2018-02-20T12:30:58.877Z,56.47
2018-02-20T12:33:26.375Z,53.45
2018-02-20T12:35:53.870Z,44.35
2018-02-20T12:38:22.133Z,42.38
2018-02-20T12:40:50.395Z,46.88
2018-02-20T12:43:17.905Z,42.45
2018-02-20T12:45:45.418Z,39.80
2018-02-20T12:48:12.907Z,40.75
2018-02-20T12:50:40.414Z,39.42
2018-02-20T12:53:07.933Z,43.42
2018-02-20T12:55:35.452Z,42.53
2018-02-20T12:58:02.944Z,43.30
2018-02-20T13:00:30.435Z,45.55
2018-02-20T13:02:57.927Z,40.00
2018-02-20T13:05:25.425Z,46.90
2018-02-20T13:07:52.932Z,49.17
2018-02-20T13:10:20.442Z,47.70
2018-02-20T13:12:47.959Z,52.47
2018-02-20T13:15:15.464Z,50.80
2018-02-20T13:17:42.951Z,44.60
2018-02-20T13:20:10.467Z,49.05
2018-02-20T13:22:37.978Z,49.35
2018-02-20T13:25:05.475Z,53.45
2018-02-20T13:27:33.734Z,47.10
2018-02-20T13:30:01.995Z,49.45
2018-02-20T13:32:29.496Z,50.97
2018-02-20T13:34:57.035Z,51.10
2018-02-20T13:37:25.291Z,52.72
2018-02-20T13:39:52.791Z,58.60
2018-02-20T13:42:20.315Z,56.55
2018-02-20T13:44:47.815Z,71.68
2018-02-20T13:47:15.341Z,59.95
2018-02-20T13:49:43.632Z,52.88
2018-02-20T13:52:11.900Z,56.95
2018-02-20T14:01:26.903Z,60.88
2018-02-20T14:03:54.403Z,59.40
2018-02-20T14:06:21.919Z,54.75
2018-02-20T14:08:50.187Z,54.40
2018-02-20T14:11:17.695Z,60.42
2018-02-20T14:13:45.199Z,49.63
2018-02-20T14:16:12.691Z,52.67
2018-02-20T14:18:40.270Z,50.95
2018-02-20T14:21:07.795Z,50.30
2018-02-20T14:23:36.103Z,53.58
2018-02-20T14:26:03.618Z,53.00
2018-02-20T14:28:31.122Z,48.83
2018-02-20T14:30:58.619Z,48.60
2018-02-20T14:33:26.136Z,48.87
2018-02-20T14:35:53.631Z,49.28
2018-02-20T14:38:21.140Z,47.80
2018-02-20T14:40:48.646Z,53.28
2018-02-20T14:43:16.159Z,45.03
2018-02-20T14:45:43.672Z,48.22
2018-02-20T14:48:11.163Z,44.13
2018-02-20T14:50:39.431Z,48.95
2018-02-20T14:53:07.703Z,45.20
2018-02-20T14:55:35.989Z,41.92
2018-02-20T14:58:04.247Z,43.92
2018-02-20T15:00:31.739Z,45.97
2018-02-20T15:02:59.263Z,48.83
2018-02-20T15:05:26.795Z,52.35
2018-02-20T15:07:54.293Z,50.30
2018-02-20T15:10:22.547Z,46.55
2018-02-20T15:12:50.815Z,46.03
2018-02-20T15:15:18.339Z,42.00
2018-02-20T15:17:45.834Z,42.62
2018-02-20T15:20:13.343Z,41.72
2018-02-20T15:22:40.851Z,40.95
2018-02-20T15:25:08.347Z,47.00
2018-02-20T15:27:36.607Z,41.42
2018-02-20T15:30:04.888Z,40.33
2018-02-20T15:32:33.151Z,46.10
2018-02-20T15:35:00.666Z,47.30
2018-02-20T15:37:28.215Z,42.70
2018-02-20T15:39:55.761Z,45.00
2018-02-20T15:42:23.236Z,47.08
2018-02-20T15:44:50.747Z,43.17
2018-02-20T15:47:18.247Z,52.38
2018-02-20T15:49:45.757Z,43.33
2018-02-20T15:52:13.279Z,47.28
2018-02-20T15:54:40.826Z,46.50
2018-02-20T15:57:08.331Z,45.15
2018-02-20T15:59:35.839Z,51.75
2018-02-20T16:02:03.347Z,45.33
2018-02-20T16:04:30.836Z,49.20
2018-02-20T16:06:59.103Z,46.35
2018-02-20T16:09:27.363Z,48.08
2018-02-20T16:11:54.859Z,44.95
2018-02-20T16:14:23.297Z,50.97
2018-02-20T16:16:51.275Z,46.25
2018-02-20T16:19:18.775Z,50.17
2018-02-20T16:21:46.285Z,48.28
2018-02-20T16:24:13.790Z,51.70
2018-02-20T16:26:41.295Z,49.03
2018-02-20T16:29:08.803Z,55.80
2018-02-20T16:31:36.307Z,57.00
2018-02-20T16:34:03.808Z,58.50
2018-02-20T16:36:31.308Z,56.97
2018-02-20T16:38:59.000Z,53.28
2018-02-20T16:41:27.278Z,62.10
2018-02-20T16:43:54.796Z,53.92
2018-02-20T16:46:22.339Z,61.45
2018-02-20T16:48:49.860Z,57.97
2018-02-20T16:51:18.155Z,55.65
2018-02-20T16:53:46.480Z,56.95
2018-02-20T16:56:13.994Z,55.05
2018-02-20T16:58:41.503Z,56.75
2018-02-20T17:01:09.012Z,60.25
2018-02-20T17:03:36.528Z,59.28
2018-02-20T17:06:04.803Z,53.40
2018-02-20T17:08:32.299Z,60.08
2018-02-20T17:11:00.613Z,54.58
2018-02-20T17:13:28.107Z,48.78
2018-02-20T17:15:55.609Z,58.30
2018-02-20T17:18:23.120Z,56.10
2018-02-20T17:20:51.442Z,59.35
2018-02-20T17:23:19.131Z,50.40
2018-02-20T17:25:46.629Z,54.47
2018-02-20T17:28:14.887Z,57.28
2018-02-20T17:30:42.387Z,55.65
2018-02-20T17:33:09.936Z,57.53
2018-02-20T17:35:38.199Z,55.88
2018-02-20T17:38:05.697Z,60.60
2018-02-20T17:40:33.258Z,54.30
2018-02-20T17:43:00.751Z,54.60
2018-02-20T17:45:28.248Z,58.75
2018-02-20T17:47:56.499Z,59.28
2018-02-20T17:50:23.991Z,57.13
2018-02-20T17:52:51.519Z,56.10
2018-02-20T17:55:19.023Z,57.17
2018-02-20T17:57:46.529Z,59.60
2018-02-20T18:00:14.024Z,61.17
2018-02-20T18:02:41.533Z,59.35
2018-02-20T18:05:09.077Z,52.55
2018-02-20T18:07:36.563Z,52.88
2018-02-20T18:10:04.076Z,60.97
2018-02-20T18:12:31.579Z,58.72
2018-02-20T18:14:59.075Z,61.95
2018-02-20T18:17:26.587Z,65.90
2018-02-20T18:19:54.079Z,62.47
2018-02-20T18:22:22.346Z,61.80
2018-02-20T18:24:50.624Z,61.63
2018-02-20T18:27:18.892Z,65.65
2018-02-20T18:29:46.395Z,56.85
2018-02-20T18:32:13.893Z,58.05
2018-02-20T18:34:41.414Z,59.28
2018-02-20T18:37:09.768Z,58.00
2018-02-20T18:39:38.026Z,56.60
2018-02-20T18:42:06.308Z,60.40
2018-02-20T18:44:34.580Z,66.65
2018-02-20T18:47:02.844Z,67.62
2018-02-20T18:49:30.454Z,61.05
2018-02-20T18:51:57.972Z,58.95
2018-02-20T18:54:25.478Z,54.22
2018-02-20T18:56:52.982Z,61.58
2018-02-20T18:59:20.495Z,59.75
2018-02-20T19:01:48.035Z,66.30
2018-02-20T19:04:15.567Z,56.28
2018-02-20T19:06:43.859Z,59.15
2018-02-20T19:09:11.380Z,58.67
2018-02-20T19:11:38.899Z,58.80
2018-02-20T19:14:06.396Z,78.45
2018-02-20T19:16:33.903Z,64.85
2018-02-20T19:19:01.403Z,66.32
2018-02-20T19:21:28.911Z,57.05
2018-02-20T19:23:57.179Z,65.07
2018-02-20T19:26:25.463Z,75.68
2018-02-20T19:28:54.007Z,70.12
2018-02-20T19:31:21.500Z,70.53
2018-02-20T19:33:49.760Z,68.18
2018-02-20T19:36:17.279Z,76.82
2018-02-20T19:38:44.859Z,65.62
2018-02-20T19:41:12.347Z,69.70
2018-02-20T19:43:40.617Z,60.50
2018-02-20T19:46:08.896Z,65.53
2018-02-20T19:48:37.164Z,74.35
2018-02-20T19:51:04.662Z,68.72
2018-02-20T19:53:32.166Z,59.95
2018-02-20T19:55:59.666Z,56.88
2018-02-20T19:58:27.182Z,55.88
2018-02-20T20:00:54.699Z,61.90
2018-02-20T20:03:23.091Z,69.60
2018-02-20T20:05:50.584Z,60.97
2018-02-20T20:08:18.095Z,60.55
2018-02-20T20:10:45.609Z,60.55
2018-02-20T20:13:13.119Z,64.03
2018-02-20T20:15:40.619Z,59.97
2018-02-20T20:18:08.119Z,63.92
2018-02-20T20:20:37.115Z,56.53
2018-02-20T20:23:03.121Z,70.85
2018-02-20T20:25:31.421Z,65.57
2018-02-20T20:27:58.937Z,65.55
2018-02-20T20:30:27.203Z,61.45
2018-02-20T20:32:54.699Z,58.55
2018-02-20T20:35:22.202Z,64.78
2018-02-20T20:37:49.723Z,59.08
2018-02-20T20:40:17.211Z,53.58
2018-02-20T20:42:44.704Z,56.50
2018-02-20T20:45:12.200Z,60.20
2018-02-20T20:47:39.717Z,60.08
2018-02-20T20:50:07.227Z,61.83
2018-02-20T20:52:34.726Z,57.05
2018-02-20T20:55:02.997Z,55.83
2018-02-20T20:57:30.491Z,56.88
2018-02-20T20:59:58.751Z,58.67
2018-02-20T21:02:27.011Z,59.67
2018-02-20T21:04:54.503Z,53.55
2018-02-20T21:07:22.763Z,55.38
2018-02-20T21:09:51.035Z,60.80
2018-02-20T21:12:18.536Z,62.55
2018-02-20T21:14:46.057Z,57.00
2018-02-20T21:17:14.331Z,55.17
2018-02-20T21:19:42.646Z,60.60
2018-02-20T21:22:10.617Z,70.35
2018-02-20T21:24:38.113Z,61.85
2018-02-20T21:27:05.607Z,68.03
2018-02-20T21:29:33.127Z,68.40
2018-02-20T21:32:00.636Z,72.30
2018-02-20T21:34:28.136Z,74.87
2018-02-20T21:36:55.634Z,70.90
2018-02-20T21:39:23.903Z,74.50
2018-02-20T21:41:51.480Z,69.28
2018-02-20T21:44:19.748Z,69.50
2018-02-20T21:46:48.015Z,67.45
2018-02-20T21:49:16.299Z,71.68
2018-02-20T21:51:44.568Z,74.12
2018-02-20T21:54:12.831Z,65.90
2018-02-20T21:56:41.099Z,77.00
2018-02-20T21:59:08.613Z,80.30
2018-02-20T22:01:36.127Z,74.57
2018-02-20T22:04:03.623Z,75.35
2018-02-20T22:06:31.140Z,77.32
2018-02-20T22:08:58.671Z,78.57
2018-02-20T22:11:26.168Z,74.35
2018-02-20T22:13:53.772Z,76.90
2018-02-20T22:16:21.279Z,74.03
2018-02-20T22:18:48.779Z,77.82
2018-02-20T22:21:16.336Z,75.55
2018-02-20T22:23:43.845Z,74.85
2018-02-20T22:26:11.339Z,79.03
2018-02-20T22:28:39.598Z,76.07
2018-02-20T22:31:07.115Z,87.43
2018-02-20T22:33:34.603Z,73.80
2018-02-20T22:36:02.114Z,78.78
2018-02-20T22:38:29.611Z,81.07
2018-02-20T22:40:57.107Z,85.43
2018-02-20T22:43:25.367Z,73.57
2018-02-20T22:45:53.636Z,83.78
2018-02-20T22:48:21.131Z,81.28
2018-02-20T22:50:48.649Z,88.25
2018-02-20T22:53:16.142Z,87.68
2018-02-20T22:55:43.644Z,85.78
2018-02-20T22:58:11.154Z,93.62
2018-02-20T23:00:39.418Z,94.13
2018-02-20T23:03:07.692Z,96.40
2018-02-20T23:05:35.963Z,82.22
2018-02-20T23:08:04.235Z,87.97
2018-02-20T23:10:31.739Z,98.07
2018-02-20T23:12:59.235Z,95.07
2018-02-20T23:15:26.732Z,88.25
2018-02-20T23:17:54.995Z,85.57
2018-02-20T23:20:23.264Z,80.03
2018-02-20T23:22:51.539Z,87.37
2018-02-20T23:25:19.039Z,89.30
2018-02-20T23:27:46.539Z,86.12
2018-02-20T23:30:14.056Z,97.30
2018-02-20T23:32:41.559Z,82.75
2018-02-20T23:35:09.059Z,89.10
2018-02-20T23:37:36.579Z,88.35
2018-02-20T23:40:04.174Z,87.12
2018-02-20T23:42:32.452Z,88.40
2018-02-20T23:44:59.966Z,89.10
2018-02-20T23:47:27.481Z,81.28
2018-02-20T23:49:54.980Z,79.07
2018-02-20T23:52:22.474Z,78.47
2018-02-20T23:54:50.746Z,79.57
2018-02-20T23:57:19.010Z,82.10
2018-02-20T23:59:46.513Z,88.18
